Bajada del Agrio, Argentina
Current Conditions -  °F | °C
As of 5:00 AM on Saturday 29 Nov 2014 (Local Time) from SAZN Reporting Station
Scattered Clouds Scattered Clouds  
Wind Chill: 59°   Ceiling: Unl
Heat Index: 59°   Visibility: 6mi
Dew Point: 37°   Wind: 5mph
Humidity: 45%   Direction: 230°SW
Pressure: 29.85"   Gusts: NA
Location:  38.56°S, 70.02°W
Report Text: SAZN 290800Z 23004KT 9999 SCT050 SCT20015/03 Q1011
Loading
Personal Weather Stations






























Interactive Weather Map New forecast layout! Learn more

10-Day Weather Forecast

Advertisements
Track Severe Weather on mobile